createdAt,value
2018-07-28T00:03:05.670Z,59.10
2018-07-28T00:07:09.330Z,59.20
2018-07-28T00:11:12.890Z,58.90
2018-07-28T00:15:16.580Z,59.30
2018-07-28T00:19:20.170Z,59.80
2018-07-28T00:23:24.182Z,59.20
2018-07-28T00:27:29.798Z,59.60
2018-07-28T00:31:33.378Z,60.60
2018-07-28T00:35:36.906Z,59.90
2018-07-28T00:39:40.478Z,59.90
2018-07-28T00:43:44.019Z,61.10
2018-07-28T00:47:47.581Z,59.20
2018-07-28T00:51:51.105Z,59.10
2018-07-28T00:55:56.726Z,60.40
2018-07-28T01:00:00.256Z,61.30
2018-07-28T01:04:04.533Z,59.50
2018-07-28T01:08:08.046Z,60.30
2018-07-28T01:12:14.981Z,60.50
2018-07-28T01:16:18.734Z,60.50
2018-07-28T01:20:22.459Z,60.20
2018-07-28T01:24:28.342Z,60.60
2018-07-28T01:28:31.941Z,61.40
2018-07-28T01:32:35.485Z,62.10
2018-07-28T01:36:39.078Z,63.00
2018-07-28T01:40:43.657Z,62.30
2018-07-28T01:44:47.271Z,62.70
2018-07-28T01:48:50.797Z,63.10
2018-07-28T01:52:54.355Z,63.50
2018-07-28T01:56:57.874Z,63.60
2018-07-28T02:01:01.563Z,63.10
2018-07-28T02:05:06.322Z,62.50
2018-07-28T02:09:12.157Z,62.70
2018-07-28T02:13:15.702Z,63.30
2018-07-28T02:17:19.348Z,62.70
2018-07-28T02:21:22.853Z,63.50
2018-07-28T02:25:26.418Z,64.10
2018-07-28T02:29:29.949Z,64.50
2018-07-28T02:33:33.595Z,65.50
2018-07-28T02:37:37.147Z,66.10
2018-07-28T02:41:41.312Z,66.60
2018-07-28T02:45:47.894Z,65.60
2018-07-28T02:49:51.482Z,65.00
2018-07-28T02:53:55.015Z,66.20
2018-07-28T02:57:58.604Z,64.30
2018-07-28T03:02:02.170Z,63.70
2018-07-28T03:06:05.895Z,62.90
2018-07-28T03:10:09.633Z,65.30
2018-07-28T03:14:16.758Z,64.20
2018-07-28T03:18:20.349Z,65.30
2018-07-28T03:22:23.889Z,65.70
2018-07-28T03:26:27.407Z,65.80
2018-07-28T03:30:30.964Z,66.30
2018-07-28T03:34:34.462Z,65.80
2018-07-28T03:38:38.110Z,65.50
2018-07-28T03:42:41.898Z,66.80
2018-07-28T03:46:45.482Z,65.80
2018-07-28T03:50:49.049Z,65.20
2018-07-28T03:54:52.998Z,65.30
2018-07-28T03:58:56.511Z,63.70
2018-07-28T04:03:00.177Z,64.80
2018-07-28T04:07:03.789Z,66.10
2018-07-28T04:11:08.374Z,67.10
2018-07-28T04:15:13.314Z,67.80
2018-07-28T04:19:17.005Z,68.50
2018-07-28T04:23:20.572Z,68.50
2018-07-28T04:27:30.206Z,68.10
2018-07-28T04:31:33.824Z,68.20
2018-07-28T04:35:37.396Z,68.60
2018-07-28T04:39:40.882Z,66.30
2018-07-28T04:43:44.414Z,67.20
2018-07-28T04:47:48.001Z,66.40
2018-07-28T04:51:56.118Z,66.80
2018-07-28T04:55:59.689Z,68.10
2018-07-28T05:00:03.979Z,68.40
2018-07-28T05:04:07.610Z,68.10
2018-07-28T05:08:11.140Z,68.60
2018-07-28T05:12:14.646Z,69.10
2018-07-28T05:16:18.268Z,68.50
2018-07-28T05:20:25.227Z,70.10
2018-07-28T05:24:28.809Z,69.80
2018-07-28T05:28:32.363Z,69.50
2018-07-28T05:32:36.353Z,69.30
2018-07-28T05:36:39.870Z,70.00
2018-07-28T05:40:48.125Z,71.30
2018-07-28T05:44:51.765Z,67.60
2018-07-28T05:48:55.417Z,68.00
2018-07-28T05:52:58.954Z,64.00
2018-07-28T05:57:02.550Z,62.80
2018-07-28T06:01:06.474Z,61.50
2018-07-28T06:05:10.140Z,61.20
2018-07-28T06:09:13.755Z,62.10
2018-07-28T06:13:17.304Z,60.90
2018-07-28T06:17:20.871Z,62.00
2018-07-28T06:25:28.789Z,60.10
2018-07-28T06:29:32.331Z,58.90
2018-07-28T06:33:35.834Z,58.00
2018-07-28T06:37:39.437Z,57.60
2018-07-28T06:41:45.049Z,59.90
2018-07-28T06:45:48.699Z,58.80
2018-07-28T06:49:52.385Z,60.70
2018-07-28T06:54:06.670Z,61.20
2018-07-28T06:58:10.221Z,62.40
2018-07-28T07:02:13.796Z,61.40
2018-07-28T07:06:17.310Z,63.80
2018-07-28T07:10:20.870Z,65.80
2018-07-28T07:14:24.420Z,71.00
2018-07-28T07:18:27.992Z,73.50
2018-07-28T07:22:32.134Z,76.70
2018-07-28T07:26:35.714Z,76.00
2018-07-28T07:30:39.261Z,78.80
2018-07-28T07:34:46.582Z,76.60
2018-07-28T07:38:50.173Z,75.90
2018-07-28T07:42:53.726Z,78.80
2018-07-28T07:46:58.286Z,76.80
2018-07-28T07:51:01.934Z,73.30
2018-07-28T07:55:05.534Z,74.30
2018-07-28T07:59:12.694Z,75.10
2018-07-28T08:03:16.401Z,77.50
2018-07-28T08:07:20.036Z,77.70
2018-07-28T08:11:24.145Z,82.30
2018-07-28T08:15:27.675Z,83.40
2018-07-28T08:19:31.222Z,83.50
2018-07-28T08:23:34.814Z,80.80
2018-07-28T08:27:38.339Z,78.00
2018-07-28T08:31:42.047Z,75.90
2018-07-28T08:35:45.554Z,76.80
2018-07-28T08:39:49.125Z,77.70
2018-07-28T08:43:52.610Z,76.00
2018-07-28T08:47:56.094Z,81.20
2018-07-28T08:51:59.586Z,80.00
2018-07-28T08:56:03.139Z,80.80
2018-07-28T09:00:07.626Z,82.00
2018-07-28T09:04:12.257Z,83.40
2018-07-28T09:08:15.750Z,83.00
2018-07-28T09:12:19.361Z,82.90
2018-07-28T09:16:22.878Z,80.40
2018-07-28T09:20:26.563Z,83.10
2018-07-28T09:24:30.254Z,81.20
2018-07-28T09:28:34.150Z,78.50
2018-07-28T09:32:37.717Z,78.60
2018-07-28T09:36:43.431Z,77.00
2018-07-28T09:40:47.034Z,75.00
2018-07-28T09:44:50.906Z,70.10
2018-07-28T09:48:54.507Z,73.20
2018-07-28T09:52:58.135Z,74.00
2018-07-28T09:57:01.834Z,74.30
2018-07-28T10:01:11.540Z,76.20
2018-07-28T10:05:15.090Z,75.00
2018-07-28T10:09:18.609Z,75.90
2018-07-28T10:13:22.130Z,77.10
2018-07-28T10:17:25.687Z,74.80
2018-07-28T10:21:42.775Z,66.20
2018-07-28T10:25:46.346Z,68.30
2018-07-28T10:29:49.830Z,64.30
2018-07-28T10:33:53.861Z,65.30
2018-07-28T10:38:07.202Z,69.70
2018-07-28T10:42:10.724Z,71.00
2018-07-28T10:46:16.365Z,69.00
2018-07-28T10:50:24.827Z,70.20
2018-07-28T10:54:28.390Z,65.50
2018-07-28T10:58:31.943Z,62.70
2018-07-28T11:02:35.446Z,60.00
2018-07-28T11:06:39.242Z,61.20
2018-07-28T11:10:42.731Z,58.50
2018-07-28T11:14:46.302Z,57.70
2018-07-28T11:19:13.362Z,56.70
2018-07-28T11:24:02.378Z,54.20
2018-07-28T11:28:07.056Z,53.20
2018-07-28T11:32:22.214Z,52.90
2018-07-28T11:36:36.780Z,54.60
2018-07-28T11:40:51.561Z,52.10
2018-07-28T11:45:06.926Z,51.70
2018-07-28T11:49:11.526Z,50.10
2018-07-28T11:53:15.052Z,50.60
2018-07-28T11:57:18.577Z,51.70
2018-07-28T12:01:38.736Z,52.00
2018-07-28T12:05:43.422Z,52.70
2018-07-28T12:09:46.907Z,54.00
2018-07-28T12:13:50.606Z,53.60
2018-07-28T12:17:54.089Z,54.10
2018-07-28T12:21:58.002Z,52.30
2018-07-28T12:26:01.523Z,51.60
2018-07-28T12:30:06.354Z,52.60
2018-07-28T12:34:09.894Z,53.70
2018-07-28T12:38:13.430Z,53.40
2018-07-28T12:42:16.917Z,53.70
2018-07-28T12:46:20.517Z,53.40
2018-07-28T12:50:41.961Z,56.20
2018-07-28T12:58:48.922Z,56.30
2018-07-28T13:02:57.502Z,58.20
2018-07-28T13:07:01.011Z,59.00
2018-07-28T13:11:04.614Z,60.30
2018-07-28T13:15:17.689Z,60.60
2018-07-28T13:19:21.219Z,60.70
2018-07-28T13:23:24.714Z,60.00
2018-07-28T13:27:28.754Z,58.80
2018-07-28T13:31:32.380Z,58.30
2018-07-28T13:35:36.346Z,57.40
2018-07-28T13:39:39.897Z,57.30
2018-07-28T13:43:49.226Z,58.30
2018-07-28T13:47:52.873Z,59.80
2018-07-28T13:51:56.388Z,59.80
2018-07-28T13:56:00.346Z,61.20
2018-07-28T14:00:11.944Z,62.10
2018-07-28T14:04:15.518Z,61.30
2018-07-28T14:08:19.147Z,64.30
2018-07-28T14:12:27.405Z,73.90
2018-07-28T14:16:34.322Z,95.50
2018-07-28T14:20:37.834Z,99.90
2018-07-28T14:29:09.613Z,99.90
2018-07-28T14:33:15.390Z,99.90
2018-07-28T14:37:19.034Z,99.90
2018-07-28T14:41:30.534Z,99.90
2018-07-28T14:45:34.145Z,99.90
2018-07-28T14:49:37.754Z,99.90
2018-07-28T14:53:41.455Z,99.90
2018-07-28T14:57:45.052Z,99.90
2018-07-28T15:01:48.698Z,99.90
2018-07-28T15:05:52.363Z,99.90
2018-07-28T15:10:03.390Z,99.90
2018-07-28T15:14:06.983Z,99.90
2018-07-28T15:18:10.546Z,99.90
2018-07-28T15:22:14.117Z,99.90
2018-07-28T15:26:17.729Z,99.90
2018-07-28T15:30:21.805Z,99.90
2018-07-28T15:34:25.396Z,99.90
2018-07-28T15:38:29.047Z,99.90
2018-07-28T15:42:32.674Z,99.90
2018-07-28T15:46:36.634Z,99.90
2018-07-28T15:50:40.136Z,99.90
2018-07-28T15:54:43.997Z,99.90
2018-07-28T15:58:47.509Z,99.90
2018-07-28T16:02:51.176Z,99.90
2018-07-28T16:06:54.687Z,99.90
2018-07-28T16:10:58.662Z,99.90
2018-07-28T16:15:02.202Z,99.90
2018-07-28T16:19:12.664Z,99.90
2018-07-28T16:23:16.214Z,99.90
2018-07-28T16:27:19.880Z,99.90
2018-07-28T16:31:23.518Z,99.90
2018-07-28T16:35:27.187Z,99.90
2018-07-28T16:39:30.674Z,99.90
2018-07-28T16:43:34.654Z,99.90
2018-07-28T16:47:39.319Z,98.70
2018-07-28T16:55:46.017Z,99.20
2018-07-28T16:59:49.902Z,99.90
2018-07-28T17:03:53.474Z,99.90
2018-07-28T17:07:57.015Z,99.90
2018-07-28T17:12:01.615Z,99.90
2018-07-28T17:16:05.286Z,99.90
2018-07-28T17:20:08.930Z,99.90
2018-07-28T17:24:12.522Z,99.10
2018-07-28T17:28:15.997Z,99.60
2018-07-28T17:32:21.677Z,98.80
2018-07-28T17:36:25.261Z,97.80
2018-07-28T17:40:28.810Z,99.40
2018-07-28T17:44:32.449Z,99.50
2018-07-28T17:48:36.058Z,98.10
2018-07-28T17:52:39.601Z,99.00
2018-07-28T17:56:43.147Z,99.90
2018-07-28T18:00:46.746Z,99.90
2018-07-28T18:04:51.321Z,99.40
2018-07-28T18:08:54.954Z,94.90
2018-07-28T18:12:58.541Z,92.70
2018-07-28T18:17:05.856Z,94.00
2018-07-28T18:21:09.732Z,95.10
2018-07-28T18:25:14.505Z,92.80
2018-07-28T18:29:18.486Z,95.00
2018-07-28T18:37:25.247Z,94.60
2018-07-28T18:45:32.050Z,91.80
2018-07-28T18:49:35.572Z,91.50
2018-07-28T18:53:39.163Z,94.10
2018-07-28T18:57:46.534Z,91.50
2018-07-28T19:01:50.079Z,91.70
2018-07-28T19:05:53.638Z,91.80
2018-07-28T19:10:02.640Z,94.00
2018-07-28T19:14:11.470Z,94.00
2018-07-28T19:18:20.474Z,94.60
2018-07-28T19:22:30.484Z,95.60
2018-07-28T19:26:52.219Z,94.70
2018-07-28T19:30:55.894Z,96.60
2018-07-28T19:35:06.262Z,95.20
2018-07-28T19:39:10.694Z,95.90
2018-07-28T19:43:14.324Z,96.00
2018-07-28T19:47:17.848Z,96.60
2018-07-28T19:51:25.928Z,97.70
2018-07-28T19:55:29.510Z,97.30
2018-07-28T19:59:34.488Z,96.70
2018-07-28T20:03:40.115Z,96.90
2018-07-28T20:07:43.758Z,96.90
2018-07-28T20:11:47.258Z,97.10
2018-07-28T20:15:50.870Z,96.40
2018-07-28T20:19:54.522Z,97.00
2018-07-28T20:24:05.982Z,96.10
2018-07-28T20:28:09.560Z,96.40
2018-07-28T20:32:13.328Z,96.90
2018-07-28T20:36:16.911Z,96.80
2018-07-28T20:40:20.586Z,96.00
2018-07-28T20:44:24.134Z,95.60
2018-07-28T20:48:27.881Z,96.40
2018-07-28T20:52:31.394Z,96.90
2018-07-28T20:56:34.954Z,96.70
2018-07-28T21:00:38.462Z,97.30
2018-07-28T21:04:42.027Z,97.50
2018-07-28T21:08:45.550Z,96.90
2018-07-28T21:12:50.210Z,97.20
2018-07-28T21:16:58.797Z,97.60
2018-07-28T21:21:02.358Z,97.70
2018-07-28T21:25:10.797Z,97.90
2018-07-28T21:29:17.995Z,97.90
2018-07-28T21:33:22.621Z,98.20
2018-07-28T21:37:26.386Z,97.50
2018-07-28T21:41:33.494Z,97.40
2018-07-28T21:45:42.850Z,97.70
2018-07-28T21:49:46.393Z,97.90
2018-07-28T21:53:49.983Z,97.80
2018-07-28T21:57:53.513Z,97.40
2018-07-28T22:01:57.165Z,97.60
2018-07-28T22:06:00.674Z,97.40
2018-07-28T22:10:04.580Z,97.90
2018-07-28T22:14:08.139Z,97.00
2018-07-28T22:18:12.806Z,96.20
2018-07-28T22:22:16.478Z,95.10
2018-07-28T22:26:23.788Z,96.40
2018-07-28T22:30:28.390Z,96.80
2018-07-28T22:34:31.985Z,97.30
2018-07-28T22:38:35.606Z,97.40
2018-07-28T22:42:53.778Z,97.60
2018-07-28T22:46:57.363Z,96.50
2018-07-28T22:51:01.022Z,97.10
2018-07-28T22:55:05.674Z,97.40
2018-07-28T22:59:09.211Z,97.70
2018-07-28T23:03:13.010Z,97.70
2018-07-28T23:07:16.786Z,98.10
2018-07-28T23:11:20.350Z,97.90
2018-07-28T23:15:23.914Z,97.90
2018-07-28T23:19:35.743Z,97.70
2018-07-28T23:23:39.334Z,97.70
2018-07-28T23:27:44.842Z,98.50
2018-07-28T23:31:50.254Z,98.00
2018-07-28T23:35:53.821Z,98.10
2018-07-28T23:39:57.353Z,97.70
2018-07-28T23:44:01.443Z,97.70
2018-07-28T23:48:05.153Z,97.70
2018-07-28T23:52:15.579Z,97.90
2018-07-28T23:56:19.522Z,97.60
